Portada
METAR-TAF:

METAR-TAF

Aeroports :

Base aèria Alcantarilla

Múrcia, Espanya

latitud: 37-57N, longitud: 001-14W, altitud: 75 m

Observació

L'informe es va fer fa 4 hores i 20 minuts, a les 18:00 UTC
Vent 6 kt del Oest/Nord-Oest
Temperatura 16°C
Humitat 59%
Pressió 1016 hPa
Visibilitat 10 km o més
sense núvols per sota de 1500 mi sense presència de cumulonimbus.

METAR: LERI 131800Z 30006KT CAVOK 16/08 Q1016 NOSIG

Hora: 23:20 (22:20 UTC)

Pronòstic

L'informe es va fer fa 8 hores i 20 minuts, a les 14:00 UTC
Pronòstic vàlid del 13 a les 15 UTC al 13 a les 24 UTC
Vent 9 kt del Oest/Nord-Oest
Visibilitat 10 km o més
sense núvols per sota de 1500 mi sense presència de cumulonimbus.

TAF: LERI 131400Z 1315/1324 30009KT CAVOK

Observacions i pronòstics meteorològics de més de 4000 aeroports (METAR i TAF).

Les estacions disponibles són els punts grocs i vermells al mapa.

Posi el ratolí al punt desitjat per veure el nom de l'estació.

Feu clic per veure les observacions i els pronòstics meteorològics.

Per canviar el mapa: feu clic els botons verds amb una creu de color negre per apropar; al botó verd amb un guió per allunyar la imatge; o en les fletxes verdes per a mapes adjacents.


METAR-TAF: